Terminal Aerodrome Forecast
Issued by NWS

Home | Current Version | Previous Version | Text Only | Print | Product List | Glossary On
Versions: 1 2 3 4 5 6 7 8 9 10 11 12 13 14
000
FTUS43 KPAH 221403 AAA
TAFOWB
TAF AMD
KOWB 221403Z 2214/2312 05012G20KT P6SM OVC010
      TEMPO 2214/2215 5SM -SHRA BR
     FM221500 06012G20KT 4SM -SHRA BR OVC010
     FM221800 04010G19KT 4SM -SHRA OVC015
     FM230000 05012KT P6SM VCSH OVC025
     FM230600 04011KT P6SM BKN025
     FM231000 03010KT P6SM BKN045=

USA.gov is the U.S. government's official web portal to all federal, state and local government web resources and services.